Etusivu
METAR-TAF:

METAR-TAF

Lentoasemat :

Puvirnituq, Quebec, Kanada

Leveyspiiri: 60-03N, Pituuspiiri: 077-17W, korkeus merenpinnasta: 23 m

Tämänhetkinen sää

Tämä raportti tehtiin 14 minuuttia sitten, kello 08.17 UTC
Tuuli 12 kn pohjoisen/luoteesta puuskistuen 17 kn:hen
Lämpötila -1°C
Kosteus 93%
Ilmanpaine 1017 hPa
Näkyvyys: 14.5 km
Pilvistä 3900 ft:n korkeudessa
heikkoa lumisadetta

METAR: CYPX 010817Z AUTO 34012G17KT 9SM -SN OVC039 M01/M02 A3003 RMK SLP172

Aika: 04:31 (08:31 UTC)

Sääennuste

Tämä raportti tehtiin 2 tuntia ja 53 minuuttia sitten, kello 05.38 UTC
Ennuste voimassa 01. päivästä klo 06 UTC - 01. päivään klo 18 UTC
Tuuli 12 kn lännestä/luoteesta
Näkyvyys: 10 km
Pilvistä 2500 ft:n korkeudessa
Ajoittain
01. päivästä klo 06 UTC - 01. päivään klo 18 UTC
Näkyvyys: 3.2 km
Pilvistä 2000 ft:n korkeudessa
heikkoa lumisadetta, utua

TAF: CYPX 010538Z 0106/0118 30012KT P6SM OVC025 TEMPO 0106/0118 2SM -SN BR OVC020 RMK FCST BASED ON AUTO OBS. NXT FCST BY 011200Z

Säähavainnot ja -ennusteet yli 4000 lentoasemalta (METAR- ja TAF-raportit).

Käytössä olevat sääasemat on merkitty karttaan keltaisilla ja punaisilla pisteillä.

Aseta hiiri pisteen päälle nähdäksesi sääaseman nimen.

Klikkaa sitten nähdäksesi säähavainnot ja -ennusteet.

Kartan vaihtaminen: klikkaa mustalla rastilla varustettuja vihreitä pisteitä, niin voit zoomata sisään; viivalla varustettua vihreää pistettä, niin voit zoomata ulos tai vihreitä nuolia, niin pääset viereisille kartoille.


METAR-TAF: